Archival Weather

Tokyo Intl

Tokyo, Japan (RJTT)

Report from: Friday, September 22, 2023 11:30 AM JST
Current time: Saturday, March 2, 2024 7:16 PM JST

Current weather – Weather history – Daily summaries
Weather forecast

Temperature28.0°C (82.4°F)
Heat index31.4°C (88.5°F)
Dew point23.0°C (73.4°F)
Winds 4 kts (2.1 m/s, 4.6 mph) Vrb
Winds variableWinds variable from West (280°) to North-Northeast (20°)
Visibility6.2 mi. (10 km)
Clouds Few clouds 2,000 ft. (610 m)
Ceiling: Broken clouds 2,500 ft. (762 m)
Broken clouds 14,000 ft. (4,267 m)
Altimeter29.83 in.Hg (1010 mB)
Relative humidity74 %
Density altitude1,982 ft. (604 m)
Remarks No significant changes expected in the next two hours
Flight conditions Marginal Visual Meteorological Conditions
Raw dataRJTT 220230Z 34004KT 280V020 9999 FEW020 BKN025 BKN140 28/23 Q1010 NOSIG
An error has occurred. This application may no longer respond until reloaded. Reload 🗙